sensor_id;sensor_type;location;lat;lon;timestamp;P1;durP1;ratioP1;P2;durP2;ratioP2
82338;SDS011;72584;56.910;60.612;2023-09-30T00:02:20;50.92;;;25.42;;
82338;SDS011;72584;56.910;60.612;2023-09-30T00:04:45;57.20;;;24.75;;
82338;SDS011;72584;56.910;60.612;2023-09-30T00:07:11;55.58;;;25.00;;
82338;SDS011;72584;56.910;60.612;2023-09-30T00:09:36;58.40;;;23.88;;
82338;SDS011;72584;56.910;60.612;2023-09-30T00:12:02;57.65;;;26.23;;
82338;SDS011;72584;56.910;60.612;2023-09-30T00:14:28;56.95;;;24.95;;
82338;SDS011;72584;56.910;60.612;2023-09-30T00:16:54;54.47;;;26.75;;
82338;SDS011;72584;56.910;60.612;2023-09-30T00:19:19;53.83;;;25.02;;
82338;SDS011;72584;56.910;60.612;2023-09-30T00:21:47;52.38;;;25.38;;
82338;SDS011;72584;56.910;60.612;2023-09-30T00:24:13;60.80;;;26.83;;
82338;SDS011;72584;56.910;60.612;2023-09-30T00:26:38;57.58;;;26.25;;
82338;SDS011;72584;56.910;60.612;2023-09-30T00:29:04;54.28;;;23.88;;
82338;SDS011;72584;56.910;60.612;2023-09-30T00:31:30;49.97;;;22.83;;
82338;SDS011;72584;56.910;60.612;2023-09-30T00:33:56;52.22;;;25.08;;
82338;SDS011;72584;56.910;60.612;2023-09-30T00:36:21;59.55;;;25.33;;
82338;SDS011;72584;56.910;60.612;2023-09-30T00:38:47;66.38;;;26.80;;
82338;SDS011;72584;56.910;60.612;2023-09-30T00:41:12;58.20;;;25.23;;
82338;SDS011;72584;56.910;60.612;2023-09-30T00:43:37;58.08;;;24.52;;
82338;SDS011;72584;56.910;60.612;2023-09-30T00:46:14;44.28;;;22.23;;
82338;SDS011;72584;56.910;60.612;2023-09-30T00:48:43;60.00;;;25.05;;
82338;SDS011;72584;56.910;60.612;2023-09-30T00:51:08;48.58;;;22.92;;
82338;SDS011;72584;56.910;60.612;2023-09-30T00:53:34;55.00;;;25.25;;
82338;SDS011;72584;56.910;60.612;2023-09-30T00:55:59;60.22;;;25.33;;
82338;SDS011;72584;56.910;60.612;2023-09-30T00:58:25;52.60;;;26.15;;
82338;SDS011;72584;56.910;60.612;2023-09-30T01:00:53;52.20;;;24.55;;
82338;SDS011;72584;56.910;60.612;2023-09-30T01:03:19;51.60;;;20.80;;
82338;SDS011;72584;56.910;60.612;2023-09-30T01:05:45;53.58;;;22.77;;
82338;SDS011;72584;56.910;60.612;2023-09-30T01:08:12;53.03;;;23.63;;
82338;SDS011;72584;56.910;60.612;2023-09-30T01:10:37;44.80;;;23.23;;
82338;SDS011;72584;56.910;60.612;2023-09-30T01:13:02;57.30;;;23.63;;
82338;SDS011;72584;56.910;60.612;2023-09-30T01:15:31;53.85;;;22.98;;
82338;SDS011;72584;56.910;60.612;2023-09-30T01:17:56;44.92;;;21.95;;
82338;SDS011;72584;56.910;60.612;2023-09-30T01:20:23;56.28;;;25.08;;
82338;SDS011;72584;56.910;60.612;2023-09-30T01:22:48;51.72;;;23.80;;
82338;SDS011;72584;56.910;60.612;2023-09-30T01:25:14;52.45;;;22.85;;
82338;SDS011;72584;56.910;60.612;2023-09-30T01:27:39;46.13;;;22.30;;
82338;SDS011;72584;56.910;60.612;2023-09-30T01:30:05;46.58;;;21.85;;
82338;SDS011;72584;56.910;60.612;2023-09-30T01:32:30;50.13;;;21.85;;
82338;SDS011;72584;56.910;60.612;2023-09-30T01:34:55;37.00;;;19.85;;
82338;SDS011;72584;56.910;60.612;2023-09-30T01:37:21;49.28;;;23.67;;
82338;SDS011;72584;56.910;60.612;2023-09-30T01:39:46;40.88;;;21.15;;
82338;SDS011;72584;56.910;60.612;2023-09-30T01:42:11;48.42;;;20.50;;
82338;SDS011;72584;56.910;60.612;2023-09-30T01:44:37;50.47;;;21.90;;
82338;SDS011;72584;56.910;60.612;2023-09-30T01:47:02;46.60;;;21.80;;
82338;SDS011;72584;56.910;60.612;2023-09-30T01:49:27;43.13;;;19.70;;
82338;SDS011;72584;56.910;60.612;2023-09-30T01:51:53;37.83;;;19.35;;
82338;SDS011;72584;56.910;60.612;2023-09-30T01:54:18;46.22;;;20.40;;
82338;SDS011;72584;56.910;60.612;2023-09-30T01:56:43;46.22;;;20.45;;
82338;SDS011;72584;56.910;60.612;2023-09-30T01:59:09;46.90;;;21.67;;
82338;SDS011;72584;56.910;60.612;2023-09-30T02:01:34;44.35;;;22.10;;
82338;SDS011;72584;56.910;60.612;2023-09-30T02:03:59;41.67;;;18.40;;
82338;SDS011;72584;56.910;60.612;2023-09-30T02:06:25;39.70;;;19.95;;
82338;SDS011;72584;56.910;60.612;2023-09-30T02:08:50;50.03;;;19.33;;
82338;SDS011;72584;56.910;60.612;2023-09-30T02:11:16;45.28;;;21.02;;
82338;SDS011;72584;56.910;60.612;2023-09-30T02:13:42;55.53;;;21.83;;
82338;SDS011;72584;56.910;60.612;2023-09-30T02:16:12;52.65;;;23.88;;
82338;SDS011;72584;56.910;60.612;2023-09-30T02:18:38;52.58;;;21.25;;
82338;SDS011;72584;56.910;60.612;2023-09-30T02:21:05;51.20;;;22.63;;
82338;SDS011;72584;56.910;60.612;2023-09-30T02:23:30;53.88;;;22.20;;
82338;SDS011;72584;56.910;60.612;2023-09-30T02:25:56;57.60;;;22.83;;
82338;SDS011;72584;56.910;60.612;2023-09-30T02:28:21;43.70;;;20.60;;
82338;SDS011;72584;56.910;60.612;2023-09-30T02:30:46;51.33;;;21.98;;
82338;SDS011;72584;56.910;60.612;2023-09-30T02:33:12;49.00;;;22.15;;
82338;SDS011;72584;56.910;60.612;2023-09-30T02:35:37;46.22;;;20.25;;
82338;SDS011;72584;56.910;60.612;2023-09-30T02:38:04;44.85;;;19.23;;
82338;SDS011;72584;56.910;60.612;2023-09-30T02:40:29;39.20;;;19.02;;
82338;SDS011;72584;56.910;60.612;2023-09-30T02:42:54;45.35;;;20.25;;
82338;SDS011;72584;56.910;60.612;2023-09-30T02:45:20;40.78;;;20.08;;
82338;SDS011;72584;56.910;60.612;2023-09-30T02:47:45;43.05;;;20.02;;
82338;SDS011;72584;56.910;60.612;2023-09-30T02:50:11;38.95;;;18.42;;
82338;SDS011;72584;56.910;60.612;2023-09-30T02:52:36;44.75;;;20.50;;
82338;SDS011;72584;56.910;60.612;2023-09-30T02:55:02;45.63;;;18.02;;
82338;SDS011;72584;56.910;60.612;2023-09-30T02:57:27;45.60;;;21.70;;
82338;SDS011;72584;56.910;60.612;2023-09-30T02:59:53;48.92;;;20.52;;
82338;SDS011;72584;56.910;60.612;2023-09-30T03:02:19;40.45;;;19.77;;
82338;SDS011;72584;56.910;60.612;2023-09-30T03:04:46;49.50;;;22.48;;
82338;SDS011;72584;56.910;60.612;2023-09-30T03:07:11;53.03;;;23.65;;
82338;SDS011;72584;56.910;60.612;2023-09-30T03:09:37;55.17;;;22.35;;
82338;SDS011;72584;56.910;60.612;2023-09-30T03:12:02;50.08;;;22.60;;
82338;SDS011;72584;56.910;60.612;2023-09-30T03:14:29;60.13;;;24.33;;
82338;SDS011;72584;56.910;60.612;2023-09-30T03:16:56;54.22;;;22.33;;
82338;SDS011;72584;56.910;60.612;2023-09-30T03:19:21;64.80;;;26.25;;
82338;SDS011;72584;56.910;60.612;2023-09-30T03:21:47;68.05;;;27.88;;
82338;SDS011;72584;56.910;60.612;2023-09-30T03:24:12;79.28;;;31.23;;
82338;SDS011;72584;56.910;60.612;2023-09-30T03:26:37;77.97;;;27.02;;
82338;SDS011;72584;56.910;60.612;2023-09-30T03:29:05;67.30;;;29.05;;
82338;SDS011;72584;56.910;60.612;2023-09-30T03:31:31;73.03;;;29.40;;
82338;SDS011;72584;56.910;60.612;2023-09-30T03:33:56;67.82;;;26.23;;
82338;SDS011;72584;56.910;60.612;2023-09-30T03:36:22;79.80;;;30.60;;
82338;SDS011;72584;56.910;60.612;2023-09-30T03:38:49;81.90;;;32.88;;
82338;SDS011;72584;56.910;60.612;2023-09-30T03:41:15;77.13;;;30.05;;
82338;SDS011;72584;56.910;60.612;2023-09-30T03:43:40;82.97;;;35.30;;
82338;SDS011;72584;56.910;60.612;2023-09-30T03:46:06;95.95;;;36.15;;
82338;SDS011;72584;56.910;60.612;2023-09-30T03:48:32;90.40;;;37.92;;
82338;SDS011;72584;56.910;60.612;2023-09-30T03:50:57;98.78;;;36.33;;
82338;SDS011;72584;56.910;60.612;2023-09-30T03:53:22;94.37;;;37.17;;
82338;SDS011;72584;56.910;60.612;2023-09-30T03:55:51;106.22;;;42.97;;
82338;SDS011;72584;56.910;60.612;2023-09-30T03:58:16;113.53;;;41.30;;
82338;SDS011;72584;56.910;60.612;2023-09-30T04:00:43;125.20;;;47.63;;
82338;SDS011;72584;56.910;60.612;2023-09-30T04:03:08;142.02;;;49.50;;
82338;SDS011;72584;56.910;60.612;2023-09-30T04:05:34;133.05;;;47.38;;
82338;SDS011;72584;56.910;60.612;2023-09-30T04:08:02;122.18;;;45.15;;
82338;SDS011;72584;56.910;60.612;2023-09-30T04:10:27;130.23;;;44.45;;
82338;SDS011;72584;56.910;60.612;2023-09-30T04:12:54;115.68;;;43.35;;
82338;SDS011;72584;56.910;60.612;2023-09-30T04:15:20;117.07;;;46.08;;
82338;SDS011;72584;56.910;60.612;2023-09-30T04:17:45;130.43;;;44.47;;
82338;SDS011;72584;56.910;60.612;2023-09-30T04:20:10;123.57;;;43.55;;
82338;SDS011;72584;56.910;60.612;2023-09-30T04:22:41;115.20;;;42.65;;
82338;SDS011;72584;56.910;60.612;2023-09-30T04:25:06;71.05;;;28.08;;
82338;SDS011;72584;56.910;60.612;2023-09-30T04:27:34;29.98;;;14.38;;
82338;SDS011;72584;56.910;60.612;2023-09-30T04:30:00;32.03;;;11.63;;
82338;SDS011;72584;56.910;60.612;2023-09-30T04:32:27;14.95;;;7.40;;
82338;SDS011;72584;56.910;60.612;2023-09-30T04:34:52;13.98;;;6.43;;
82338;SDS011;72584;56.910;60.612;2023-09-30T04:37:18;7.95;;;3.95;;
82338;SDS011;72584;56.910;60.612;2023-09-30T04:39:44;5.82;;;3.53;;
82338;SDS011;72584;56.910;60.612;2023-09-30T04:42:09;4.80;;;3.20;;
82338;SDS011;72584;56.910;60.612;2023-09-30T04:44:36;8.18;;;3.78;;
82338;SDS011;72584;56.910;60.612;2023-09-30T04:47:02;5.50;;;3.38;;
82338;SDS011;72584;56.910;60.612;2023-09-30T04:49:29;6.90;;;2.95;;
82338;SDS011;72584;56.910;60.612;2023-09-30T04:51:54;8.07;;;3.33;;
82338;SDS011;72584;56.910;60.612;2023-09-30T04:54:20;8.10;;;3.40;;
82338;SDS011;72584;56.910;60.612;2023-09-30T04:56:46;6.07;;;3.20;;
82338;SDS011;72584;56.910;60.612;2023-09-30T04:59:12;6.95;;;2.80;;
82338;SDS011;72584;56.910;60.612;2023-09-30T05:01:37;7.60;;;2.92;;
82338;SDS011;72584;56.910;60.612;2023-09-30T05:04:03;8.40;;;3.27;;
82338;SDS011;72584;56.910;60.612;2023-09-30T05:06:28;8.32;;;3.28;;
82338;SDS011;72584;56.910;60.612;2023-09-30T05:08:53;6.32;;;3.55;;
82338;SDS011;72584;56.910;60.612;2023-09-30T05:11:20;11.27;;;3.42;;
82338;SDS011;72584;56.910;60.612;2023-09-30T05:13:45;7.95;;;3.10;;
82338;SDS011;72584;56.910;60.612;2023-09-30T05:16:11;5.88;;;3.08;;
82338;SDS011;72584;56.910;60.612;2023-09-30T05:18:38;8.32;;;3.05;;
82338;SDS011;72584;56.910;60.612;2023-09-30T05:21:03;8.20;;;3.83;;
82338;SDS011;72584;56.910;60.612;2023-09-30T05:23:29;9.18;;;4.28;;
82338;SDS011;72584;56.910;60.612;2023-09-30T05:25:54;14.57;;;4.30;;
82338;SDS011;72584;56.910;60.612;2023-09-30T05:28:20;13.27;;;4.47;;
82338;SDS011;72584;56.910;60.612;2023-09-30T05:30:45;10.95;;;5.03;;
82338;SDS011;72584;56.910;60.612;2023-09-30T05:33:11;12.57;;;4.70;;
82338;SDS011;72584;56.910;60.612;2023-09-30T05:35:42;9.85;;;4.90;;
82338;SDS011;72584;56.910;60.612;2023-09-30T05:38:07;9.77;;;4.72;;
82338;SDS011;72584;56.910;60.612;2023-09-30T05:40:33;9.70;;;4.72;;
82338;SDS011;72584;56.910;60.612;2023-09-30T05:42:58;13.90;;;5.33;;
82338;SDS011;72584;56.910;60.612;2023-09-30T05:45:24;15.07;;;5.80;;
82338;SDS011;72584;56.910;60.612;2023-09-30T05:47:51;12.55;;;5.45;;
82338;SDS011;72584;56.910;60.612;2023-09-30T05:50:20;17.33;;;5.75;;
82338;SDS011;72584;56.910;60.612;2023-09-30T05:52:50;13.27;;;5.20;;
82338;SDS011;72584;56.910;60.612;2023-09-30T05:55:16;14.65;;;6.63;;
82338;SDS011;72584;56.910;60.612;2023-09-30T05:57:44;16.85;;;5.45;;
82338;SDS011;72584;56.910;60.612;2023-09-30T06:00:11;15.15;;;5.93;;
82338;SDS011;72584;56.910;60.612;2023-09-30T06:02:39;14.13;;;5.57;;
82338;SDS011;72584;56.910;60.612;2023-09-30T06:05:05;15.88;;;5.50;;
82338;SDS011;72584;56.910;60.612;2023-09-30T06:07:30;15.07;;;5.47;;
82338;SDS011;72584;56.910;60.612;2023-09-30T06:09:56;20.00;;;6.80;;
82338;SDS011;72584;56.910;60.612;2023-09-30T06:12:21;16.05;;;6.78;;
82338;SDS011;72584;56.910;60.612;2023-09-30T06:14:46;13.80;;;5.95;;
82338;SDS011;72584;56.910;60.612;2023-09-30T06:17:11;19.15;;;5.57;;
82338;SDS011;72584;56.910;60.612;2023-09-30T06:19:37;14.05;;;6.03;;
82338;SDS011;72584;56.910;60.612;2023-09-30T06:22:02;8.38;;;4.47;;
82338;SDS011;72584;56.910;60.612;2023-09-30T06:24:28;13.25;;;6.80;;
82338;SDS011;72584;56.910;60.612;2023-09-30T06:26:53;13.48;;;5.85;;
82338;SDS011;72584;56.910;60.612;2023-09-30T06:29:18;15.73;;;6.35;;
82338;SDS011;72584;56.910;60.612;2023-09-30T06:31:44;12.75;;;5.88;;
82338;SDS011;72584;56.910;60.612;2023-09-30T06:34:10;14.18;;;5.53;;
82338;SDS011;72584;56.910;60.612;2023-09-30T06:36:36;12.88;;;5.65;;
82338;SDS011;72584;56.910;60.612;2023-09-30T06:39:02;21.77;;;6.70;;
82338;SDS011;72584;56.910;60.612;2023-09-30T06:41:30;13.40;;;6.05;;
82338;SDS011;72584;56.910;60.612;2023-09-30T06:43:56;14.13;;;5.85;;
82338;SDS011;72584;56.910;60.612;2023-09-30T06:46:21;19.98;;;7.90;;
82338;SDS011;72584;56.910;60.612;2023-09-30T06:48:49;14.20;;;6.80;;
82338;SDS011;72584;56.910;60.612;2023-09-30T06:51:17;13.23;;;6.25;;
82338;SDS011;72584;56.910;60.612;2023-09-30T06:53:42;18.02;;;7.55;;
82338;SDS011;72584;56.910;60.612;2023-09-30T06:56:08;12.75;;;5.93;;
82338;SDS011;72584;56.910;60.612;2023-09-30T06:58:33;12.93;;;5.30;;
82338;SDS011;72584;56.910;60.612;2023-09-30T07:00:58;10.77;;;6.00;;
82338;SDS011;72584;56.910;60.612;2023-09-30T07:03:24;14.05;;;5.30;;
82338;SDS011;72584;56.910;60.612;2023-09-30T07:05:50;23.13;;;6.55;;
82338;SDS011;72584;56.910;60.612;2023-09-30T07:08:18;13.20;;;4.78;;
82338;SDS011;72584;56.910;60.612;2023-09-30T07:10:44;12.52;;;5.30;;
82338;SDS011;72584;56.910;60.612;2023-09-30T07:13:11;10.05;;;5.43;;
82338;SDS011;72584;56.910;60.612;2023-09-30T07:15:36;8.35;;;5.25;;
82338;SDS011;72584;56.910;60.612;2023-09-30T07:18:01;13.32;;;5.47;;
82338;SDS011;72584;56.910;60.612;2023-09-30T07:20:27;13.63;;;6.32;;
82338;SDS011;72584;56.910;60.612;2023-09-30T07:22:54;10.40;;;4.70;;
82338;SDS011;72584;56.910;60.612;2023-09-30T07:25:19;10.95;;;5.38;;
82338;SDS011;72584;56.910;60.612;2023-09-30T07:27:45;6.82;;;4.43;;
82338;SDS011;72584;56.910;60.612;2023-09-30T07:30:11;9.63;;;4.82;;
82338;SDS011;72584;56.910;60.612;2023-09-30T07:32:37;7.75;;;4.32;;
82338;SDS011;72584;56.910;60.612;2023-09-30T07:35:02;9.63;;;4.38;;
82338;SDS011;72584;56.910;60.612;2023-09-30T07:37:28;9.50;;;5.22;;
82338;SDS011;72584;56.910;60.612;2023-09-30T07:39:53;10.05;;;4.75;;
82338;SDS011;72584;56.910;60.612;2023-09-30T07:42:19;10.27;;;4.57;;
82338;SDS011;72584;56.910;60.612;2023-09-30T07:44:44;9.70;;;4.45;;
82338;SDS011;72584;56.910;60.612;2023-09-30T07:47:09;11.20;;;5.50;;
82338;SDS011;72584;56.910;60.612;2023-09-30T07:49:35;8.63;;;4.88;;
82338;SDS011;72584;56.910;60.612;2023-09-30T07:52:00;11.13;;;5.05;;
82338;SDS011;72584;56.910;60.612;2023-09-30T07:54:25;8.57;;;4.28;;
82338;SDS011;72584;56.910;60.612;2023-09-30T07:56:51;8.85;;;4.93;;
82338;SDS011;72584;56.910;60.612;2023-09-30T07:59:17;12.15;;;5.57;;
82338;SDS011;72584;56.910;60.612;2023-09-30T08:01:43;9.20;;;4.97;;
82338;SDS011;72584;56.910;60.612;2023-09-30T08:04:08;9.48;;;5.63;;
82338;SDS011;72584;56.910;60.612;2023-09-30T08:06:33;6.97;;;4.43;;
82338;SDS011;72584;56.910;60.612;2023-09-30T08:08:59;16.23;;;4.93;;
82338;SDS011;72584;56.910;60.612;2023-09-30T08:11:25;8.20;;;4.93;;
82338;SDS011;72584;56.910;60.612;2023-09-30T08:13:56;11.90;;;6.20;;
82338;SDS011;72584;56.910;60.612;2023-09-30T08:16:21;13.85;;;6.63;;
82338;SDS011;72584;56.910;60.612;2023-09-30T08:18:46;13.85;;;6.22;;
82338;SDS011;72584;56.910;60.612;2023-09-30T08:21:12;11.70;;;5.95;;
82338;SDS011;72584;56.910;60.612;2023-09-30T08:23:37;16.55;;;9.82;;
82338;SDS011;72584;56.910;60.612;2023-09-30T08:26:04;17.92;;;7.90;;
82338;SDS011;72584;56.910;60.612;2023-09-30T08:28:30;17.50;;;6.93;;
82338;SDS011;72584;56.910;60.612;2023-09-30T08:30:55;18.70;;;8.48;;
82338;SDS011;72584;56.910;60.612;2023-09-30T08:33:26;20.35;;;9.10;;
82338;SDS011;72584;56.910;60.612;2023-09-30T08:35:55;21.95;;;8.73;;
82338;SDS011;72584;56.910;60.612;2023-09-30T08:38:21;19.33;;;7.82;;
82338;SDS011;72584;56.910;60.612;2023-09-30T08:40:47;16.60;;;8.13;;
82338;SDS011;72584;56.910;60.612;2023-09-30T08:43:13;17.30;;;6.75;;
82338;SDS011;72584;56.910;60.612;2023-09-30T08:45:40;21.58;;;6.57;;
82338;SDS011;72584;56.910;60.612;2023-09-30T08:48:09;14.38;;;6.75;;
82338;SDS011;72584;56.910;60.612;2023-09-30T08:50:35;15.15;;;7.45;;
82338;SDS011;72584;56.910;60.612;2023-09-30T08:53:01;13.73;;;6.45;;
82338;SDS011;72584;56.910;60.612;2023-09-30T08:55:29;14.65;;;5.72;;
82338;SDS011;72584;56.910;60.612;2023-09-30T08:57:54;15.80;;;6.97;;
82338;SDS011;72584;56.910;60.612;2023-09-30T09:00:21;14.15;;;6.72;;
82338;SDS011;72584;56.910;60.612;2023-09-30T09:02:46;10.82;;;6.32;;
82338;SDS011;72584;56.910;60.612;2023-09-30T09:05:14;18.25;;;7.82;;
82338;SDS011;72584;56.910;60.612;2023-09-30T09:07:40;13.88;;;7.13;;
82338;SDS011;72584;56.910;60.612;2023-09-30T09:10:06;16.85;;;7.28;;
82338;SDS011;72584;56.910;60.612;2023-09-30T09:12:33;12.30;;;6.43;;
82338;SDS011;72584;56.910;60.612;2023-09-30T09:14:59;12.82;;;6.22;;
82338;SDS011;72584;56.910;60.612;2023-09-30T09:17:24;10.90;;;6.47;;
82338;SDS011;72584;56.910;60.612;2023-09-30T09:20:05;13.65;;;6.75;;
82338;SDS011;72584;56.910;60.612;2023-09-30T09:22:40;17.00;;;6.47;;
82338;SDS011;72584;56.910;60.612;2023-09-30T09:25:05;15.57;;;6.40;;
82338;SDS011;72584;56.910;60.612;2023-09-30T09:27:33;14.40;;;6.35;;
82338;SDS011;72584;56.910;60.612;2023-09-30T09:30:13;14.98;;;6.82;;
82338;SDS011;72584;56.910;60.612;2023-09-30T09:32:39;12.40;;;5.95;;
82338;SDS011;72584;56.910;60.612;2023-09-30T09:35:04;13.90;;;6.53;;
82338;SDS011;72584;56.910;60.612;2023-09-30T09:37:31;12.05;;;5.53;;
82338;SDS011;72584;56.910;60.612;2023-09-30T09:39:57;27.70;;;9.38;;
82338;SDS011;72584;56.910;60.612;2023-09-30T09:42:27;9.23;;;5.78;;
82338;SDS011;72584;56.910;60.612;2023-09-30T09:45:13;9.48;;;6.05;;
82338;SDS011;72584;56.910;60.612;2023-09-30T09:47:38;12.90;;;5.22;;
82338;SDS011;72584;56.910;60.612;2023-09-30T09:50:04;10.48;;;6.35;;
82338;SDS011;72584;56.910;60.612;2023-09-30T09:52:30;11.63;;;5.63;;
82338;SDS011;72584;56.910;60.612;2023-09-30T09:54:56;15.35;;;6.20;;
82338;SDS011;72584;56.910;60.612;2023-09-30T09:57:22;16.30;;;6.70;;
82338;SDS011;72584;56.910;60.612;2023-09-30T09:59:50;10.27;;;5.93;;
82338;SDS011;72584;56.910;60.612;2023-09-30T10:02:17;12.13;;;5.97;;
82338;SDS011;72584;56.910;60.612;2023-09-30T10:04:46;11.82;;;5.97;;
82338;SDS011;72584;56.910;60.612;2023-09-30T10:07:13;9.13;;;6.18;;
82338;SDS011;72584;56.910;60.612;2023-09-30T10:09:39;10.35;;;5.70;;
82338;SDS011;72584;56.910;60.612;2023-09-30T10:12:06;9.80;;;5.63;;
82338;SDS011;72584;56.910;60.612;2023-09-30T10:14:34;10.73;;;5.45;;
82338;SDS011;72584;56.910;60.612;2023-09-30T10:17:00;7.68;;;5.07;;
82338;SDS011;72584;56.910;60.612;2023-09-30T10:19:26;8.38;;;4.90;;
82338;SDS011;72584;56.910;60.612;2023-09-30T10:24:38;10.98;;;5.57;;
82338;SDS011;72584;56.910;60.612;2023-09-30T10:29:47;11.30;;;6.90;;
82338;SDS011;72584;56.910;60.612;2023-09-30T10:32:13;9.70;;;4.07;;
82338;SDS011;72584;56.910;60.612;2023-09-30T10:34:39;10.63;;;5.32;;
82338;SDS011;72584;56.910;60.612;2023-09-30T10:37:19;8.93;;;4.10;;
82338;SDS011;72584;56.910;60.612;2023-09-30T10:39:55;11.60;;;3.83;;
82338;SDS011;72584;56.910;60.612;2023-09-30T10:44:47;6.28;;;4.40;;
82338;SDS011;72584;56.910;60.612;2023-09-30T10:49:47;7.30;;;4.82;;
82338;SDS011;72584;56.910;60.612;2023-09-30T10:52:12;11.98;;;5.18;;
82338;SDS011;72584;56.910;60.612;2023-09-30T10:54:46;12.57;;;6.90;;
82338;SDS011;72584;56.910;60.612;2023-09-30T10:57:11;18.48;;;8.88;;
82338;SDS011;72584;56.910;60.612;2023-09-30T10:59:37;29.00;;;15.95;;
82338;SDS011;72584;56.910;60.612;2023-09-30T11:02:02;10.27;;;5.30;;
82338;SDS011;72584;56.910;60.612;2023-09-30T11:04:29;7.88;;;3.95;;
82338;SDS011;72584;56.910;60.612;2023-09-30T11:06:54;8.30;;;4.15;;
82338;SDS011;72584;56.910;60.612;2023-09-30T11:09:20;10.90;;;4.15;;
82338;SDS011;72584;56.910;60.612;2023-09-30T11:11:47;6.15;;;3.95;;
82338;SDS011;72584;56.910;60.612;2023-09-30T11:16:48;5.25;;;3.55;;
82338;SDS011;72584;56.910;60.612;2023-09-30T11:19:13;15.18;;;4.00;;
82338;SDS011;72584;56.910;60.612;2023-09-30T11:21:40;8.00;;;3.72;;
82338;SDS011;72584;56.910;60.612;2023-09-30T11:24:06;4.20;;;3.20;;
82338;SDS011;72584;56.910;60.612;2023-09-30T11:26:32;12.05;;;4.50;;
82338;SDS011;72584;56.910;60.612;2023-09-30T11:29:09;7.93;;;4.10;;
82338;SDS011;72584;56.910;60.612;2023-09-30T11:31:42;7.93;;;4.00;;
82338;SDS011;72584;56.910;60.612;2023-09-30T11:34:08;9.82;;;3.80;;
82338;SDS011;72584;56.910;60.612;2023-09-30T11:36:35;9.05;;;3.20;;
82338;SDS011;72584;56.910;60.612;2023-09-30T11:39:01;10.65;;;3.55;;
82338;SDS011;72584;56.910;60.612;2023-09-30T11:41:37;7.18;;;3.97;;
82338;SDS011;72584;56.910;60.612;2023-09-30T11:46:55;8.13;;;3.83;;
82338;SDS011;72584;56.910;60.612;2023-09-30T11:49:28;8.38;;;3.65;;
82338;SDS011;72584;56.910;60.612;2023-09-30T11:51:53;4.43;;;3.53;;
82338;SDS011;72584;56.910;60.612;2023-09-30T11:54:19;5.18;;;3.40;;
82338;SDS011;72584;56.910;60.612;2023-09-30T11:56:44;16.98;;;6.03;;
82338;SDS011;72584;56.910;60.612;2023-09-30T11:59:12;11.60;;;4.18;;
82338;SDS011;72584;56.910;60.612;2023-09-30T12:01:37;12.83;;;4.70;;
82338;SDS011;72584;56.910;60.612;2023-09-30T12:04:03;7.78;;;4.88;;
82338;SDS011;72584;56.910;60.612;2023-09-30T12:06:29;10.43;;;4.65;;
82338;SDS011;72584;56.910;60.612;2023-09-30T12:08:54;7.90;;;4.65;;
82338;SDS011;72584;56.910;60.612;2023-09-30T12:11:20;6.85;;;4.10;;
82338;SDS011;72584;56.910;60.612;2023-09-30T12:13:45;8.73;;;4.43;;
82338;SDS011;72584;56.910;60.612;2023-09-30T12:16:13;11.73;;;6.28;;
82338;SDS011;72584;56.910;60.612;2023-09-30T12:18:38;11.07;;;5.15;;
82338;SDS011;72584;56.910;60.612;2023-09-30T12:21:06;8.30;;;3.92;;
82338;SDS011;72584;56.910;60.612;2023-09-30T12:23:33;9.90;;;4.18;;
82338;SDS011;72584;56.910;60.612;2023-09-30T12:25:58;15.00;;;6.47;;
82338;SDS011;72584;56.910;60.612;2023-09-30T12:28:23;5.83;;;4.03;;
82338;SDS011;72584;56.910;60.612;2023-09-30T12:30:49;10.43;;;5.17;;
82338;SDS011;72584;56.910;60.612;2023-09-30T12:33:14;11.60;;;6.00;;
82338;SDS011;72584;56.910;60.612;2023-09-30T12:35:39;11.03;;;5.80;;
82338;SDS011;72584;56.910;60.612;2023-09-30T12:38:04;9.63;;;4.17;;
82338;SDS011;72584;56.910;60.612;2023-09-30T12:40:30;9.50;;;5.40;;
82338;SDS011;72584;56.910;60.612;2023-09-30T12:42:55;11.68;;;4.97;;
82338;SDS011;72584;56.910;60.612;2023-09-30T12:45:21;7.03;;;4.63;;
82338;SDS011;72584;56.910;60.612;2023-09-30T12:47:46;10.80;;;6.18;;
82338;SDS011;72584;56.910;60.612;2023-09-30T12:50:13;8.38;;;4.20;;
82338;SDS011;72584;56.910;60.612;2023-09-30T12:52:38;8.02;;;5.22;;
82338;SDS011;72584;56.910;60.612;2023-09-30T12:55:04;9.98;;;5.00;;
82338;SDS011;72584;56.910;60.612;2023-09-30T12:57:29;6.43;;;3.90;;
82338;SDS011;72584;56.910;60.612;2023-09-30T12:59:55;10.80;;;5.30;;
82338;SDS011;72584;56.910;60.612;2023-09-30T13:02:20;14.02;;;4.63;;
82338;SDS011;72584;56.910;60.612;2023-09-30T13:04:46;12.27;;;5.05;;
82338;SDS011;72584;56.910;60.612;2023-09-30T13:07:11;6.63;;;3.90;;
82338;SDS011;72584;56.910;60.612;2023-09-30T13:09:40;10.32;;;4.05;;
82338;SDS011;72584;56.910;60.612;2023-09-30T13:12:05;8.02;;;4.82;;
82338;SDS011;72584;56.910;60.612;2023-09-30T13:14:31;7.85;;;4.35;;
82338;SDS011;72584;56.910;60.612;2023-09-30T13:16:56;8.15;;;4.38;;
82338;SDS011;72584;56.910;60.612;2023-09-30T13:19:22;13.50;;;5.20;;
82338;SDS011;72584;56.910;60.612;2023-09-30T13:21:48;10.02;;;4.97;;
82338;SDS011;72584;56.910;60.612;2023-09-30T13:24:14;14.20;;;4.45;;
82338;SDS011;72584;56.910;60.612;2023-09-30T13:26:39;24.08;;;17.73;;
82338;SDS011;72584;56.910;60.612;2023-09-30T13:29:04;6.43;;;4.65;;
82338;SDS011;72584;56.910;60.612;2023-09-30T13:31:30;9.73;;;5.07;;
82338;SDS011;72584;56.910;60.612;2023-09-30T13:33:55;9.90;;;5.07;;
82338;SDS011;72584;56.910;60.612;2023-09-30T13:36:21;10.52;;;5.35;;
82338;SDS011;72584;56.910;60.612;2023-09-30T13:38:46;6.93;;;4.22;;
82338;SDS011;72584;56.910;60.612;2023-09-30T13:41:11;12.25;;;4.72;;
82338;SDS011;72584;56.910;60.612;2023-09-30T13:43:37;11.07;;;5.45;;
82338;SDS011;72584;56.910;60.612;2023-09-30T13:46:04;10.25;;;4.68;;
82338;SDS011;72584;56.910;60.612;2023-09-30T13:48:32;14.20;;;5.25;;
82338;SDS011;72584;56.910;60.612;2023-09-30T13:51:06;8.07;;;4.93;;
82338;SDS011;72584;56.910;60.612;2023-09-30T13:53:32;7.45;;;3.90;;
82338;SDS011;72584;56.910;60.612;2023-09-30T13:55:57;11.73;;;5.57;;
82338;SDS011;72584;56.910;60.612;2023-09-30T13:58:23;6.63;;;5.00;;
82338;SDS011;72584;56.910;60.612;2023-09-30T14:00:49;11.68;;;6.32;;
82338;SDS011;72584;56.910;60.612;2023-09-30T14:03:17;10.93;;;5.50;;
82338;SDS011;72584;56.910;60.612;2023-09-30T14:05:43;10.73;;;5.28;;
82338;SDS011;72584;56.910;60.612;2023-09-30T14:08:10;10.35;;;5.53;;
82338;SDS011;72584;56.910;60.612;2023-09-30T14:10:35;13.32;;;5.07;;
82338;SDS011;72584;56.910;60.612;2023-09-30T14:13:01;10.23;;;6.13;;
82338;SDS011;72584;56.910;60.612;2023-09-30T14:15:26;11.70;;;7.03;;
82338;SDS011;72584;56.910;60.612;2023-09-30T14:17:53;14.70;;;5.40;;
82338;SDS011;72584;56.910;60.612;2023-09-30T14:20:20;14.85;;;7.38;;
82338;SDS011;72584;56.910;60.612;2023-09-30T14:22:46;11.43;;;5.45;;
82338;SDS011;72584;56.910;60.612;2023-09-30T14:25:11;10.70;;;6.05;;
82338;SDS011;72584;56.910;60.612;2023-09-30T14:27:37;13.88;;;5.78;;
82338;SDS011;72584;56.910;60.612;2023-09-30T14:30:02;8.60;;;5.50;;
82338;SDS011;72584;56.910;60.612;2023-09-30T14:32:29;10.32;;;5.68;;